Terminal Aerodrome Forecast
Issued by NWS

Home | Current Version | Previous Version | Text Only | Print | Product List | Glossary On
Versions: 1 2 3 4 5 6 7 8 9 10 11 12 13 14 15 16 17 18 19
000
FTUS45 KABQ 190542 RRB
TAFGUP
TAF
KGUP 190542Z 1906/2006 VRB04KT P6SM SKC
     FM190900 22008KT 2SM BR BKN008
      TEMPO 1911/1915 3/4SM BR BKN002
     FM191500 22010KT 6SM BR FEW007 BKN200
     FM191800 24015G25KT P6SM VCSH BKN050
     FM200000 22011KT P6SM VCSH OVC040=

USA.gov is the U.S. government's official web portal to all federal, state and local government web resources and services.